createdAt,value
2023-08-06T00:00:48.335Z,10.58
2023-08-06T00:02:29.731Z,9.45
2023-08-06T00:04:11.096Z,9.35
2023-08-06T00:05:52.439Z,9.61
2023-08-06T00:07:33.826Z,9.89
2023-08-06T00:09:15.202Z,8.97
2023-08-06T00:10:56.547Z,8.92
2023-08-06T00:12:37.890Z,9.31
2023-08-06T00:14:19.234Z,9.81
2023-08-06T00:16:00.601Z,9.88
2023-08-06T00:17:42.006Z,9.58
2023-08-06T00:19:23.457Z,9.55
2023-08-06T00:21:04.842Z,9.44
2023-08-06T00:22:46.212Z,9.34
2023-08-06T00:24:27.554Z,9.67
2023-08-06T00:26:08.914Z,9.98
2023-08-06T00:27:50.265Z,10.30
2023-08-06T00:29:31.621Z,10.42
2023-08-06T00:31:13.064Z,10.52
2023-08-06T00:32:54.470Z,10.71
2023-08-06T00:34:35.891Z,10.63
2023-08-06T00:36:17.282Z,10.66
2023-08-06T00:37:58.626Z,10.72
2023-08-06T00:39:39.983Z,10.67
2023-08-06T00:41:21.342Z,9.97
2023-08-06T00:43:02.677Z,10.07
2023-08-06T00:44:44.027Z,9.87
2023-08-06T00:46:25.494Z,10.08
2023-08-06T00:48:06.869Z,9.98
2023-08-06T00:49:48.281Z,9.79
2023-08-06T00:51:29.627Z,9.61
2023-08-06T00:53:10.986Z,9.44
2023-08-06T00:54:52.719Z,9.70
2023-08-06T00:56:34.049Z,9.71
2023-08-06T00:58:15.417Z,9.88
2023-08-06T00:59:56.778Z,10.04
2023-08-06T01:01:38.105Z,10.39
2023-08-06T01:03:19.502Z,10.47
2023-08-06T01:05:01.017Z,10.29
2023-08-06T01:06:42.461Z,10.33
2023-08-06T01:08:23.830Z,9.67
2023-08-06T01:10:05.415Z,9.70
2023-08-06T01:11:46.798Z,9.87
2023-08-06T01:13:28.233Z,10.10
2023-08-06T01:15:09.662Z,9.25
2023-08-06T01:16:50.993Z,8.79
2023-08-06T01:18:34.644Z,8.78
2023-08-06T01:20:16.305Z,8.64
2023-08-06T01:21:57.640Z,9.02
2023-08-06T01:23:39.010Z,9.24
2023-08-06T01:25:20.371Z,9.55
2023-08-06T01:27:01.709Z,9.61
2023-08-06T01:28:43.110Z,9.71
2023-08-06T01:30:24.505Z,9.83
2023-08-06T01:32:05.872Z,9.98
2023-08-06T01:33:47.284Z,10.06
2023-08-06T01:35:28.681Z,9.49
2023-08-06T01:37:10.060Z,9.51
2023-08-06T01:38:51.498Z,9.62
2023-08-06T01:40:32.887Z,9.41
2023-08-06T01:42:14.278Z,9.47
2023-08-06T01:43:55.614Z,9.10
2023-08-06T01:45:36.939Z,9.25
2023-08-06T01:47:18.342Z,9.43
2023-08-06T01:48:59.738Z,9.25
2023-08-06T01:50:41.096Z,9.20
2023-08-06T01:52:22.470Z,9.06
2023-08-06T01:54:03.840Z,9.08
2023-08-06T01:55:45.226Z,9.43
2023-08-06T01:57:26.595Z,9.61
2023-08-06T01:59:07.967Z,9.84
2023-08-06T02:00:49.331Z,9.93
2023-08-06T02:02:30.741Z,10.10
2023-08-06T02:04:12.169Z,10.20
2023-08-06T02:05:55.788Z,10.39
2023-08-06T02:07:37.269Z,10.54
2023-08-06T02:09:18.659Z,10.56
2023-08-06T02:11:00.025Z,10.61
2023-08-06T02:12:41.452Z,10.57
2023-08-06T02:14:22.800Z,10.64
2023-08-06T02:16:04.164Z,10.71
2023-08-06T02:17:45.523Z,10.82
2023-08-06T02:19:26.929Z,10.72
2023-08-06T02:21:08.280Z,10.59
2023-08-06T02:22:49.629Z,10.34
2023-08-06T02:24:30.994Z,10.48
2023-08-06T02:26:12.336Z,10.76
2023-08-06T02:27:53.675Z,10.67
2023-08-06T02:29:35.032Z,10.63
2023-08-06T02:31:16.422Z,10.55
2023-08-06T02:32:57.905Z,10.22
2023-08-06T02:34:39.312Z,10.30
2023-08-06T02:36:20.660Z,10.35
2023-08-06T02:38:02.022Z,10.48
2023-08-06T02:39:43.394Z,10.46
2023-08-06T02:41:24.730Z,10.28
2023-08-06T02:43:06.098Z,10.27
2023-08-06T02:44:47.498Z,10.30
2023-08-06T02:46:28.864Z,10.53
2023-08-06T02:48:10.203Z,9.56
2023-08-06T02:49:51.574Z,9.38
2023-08-06T02:51:32.929Z,9.70
2023-08-06T02:53:14.301Z,9.92
2023-08-06T02:54:55.649Z,10.17
2023-08-06T02:56:36.989Z,10.39
2023-08-06T02:58:18.354Z,10.45
2023-08-06T02:59:59.725Z,10.57
2023-08-06T03:01:41.112Z,10.47
2023-08-06T03:03:22.460Z,10.67
2023-08-06T03:05:03.822Z,10.48
2023-08-06T03:06:45.164Z,10.54
2023-08-06T03:08:26.504Z,10.23
2023-08-06T03:10:07.873Z,10.01
2023-08-06T03:11:49.206Z,9.44
2023-08-06T03:13:30.583Z,9.01
2023-08-06T03:15:13.074Z,8.85
2023-08-06T03:16:54.583Z,8.73
2023-08-06T03:18:35.974Z,8.54
2023-08-06T03:20:17.301Z,8.13
2023-08-06T03:21:58.758Z,8.31
2023-08-06T03:23:40.128Z,8.40
2023-08-06T03:25:21.459Z,8.48
2023-08-06T03:27:02.797Z,8.74
2023-08-06T03:28:44.172Z,9.28
2023-08-06T03:30:25.502Z,9.40
2023-08-06T03:32:06.842Z,9.52
2023-08-06T03:33:48.230Z,9.76
2023-08-06T03:35:29.554Z,9.82
2023-08-06T03:37:10.952Z,10.09
2023-08-06T03:38:52.313Z,10.20
2023-08-06T03:40:33.669Z,10.47
2023-08-06T03:42:15.022Z,10.24
2023-08-06T03:43:56.392Z,10.14
2023-08-06T03:45:37.753Z,10.49
2023-08-06T03:47:19.144Z,10.40
2023-08-06T03:49:00.521Z,10.51
2023-08-06T03:50:41.867Z,10.35
2023-08-06T03:52:23.203Z,10.42
2023-08-06T03:54:04.638Z,9.80
2023-08-06T03:55:45.975Z,9.01
2023-08-06T03:57:27.336Z,9.00
2023-08-06T03:59:08.700Z,9.24
2023-08-06T04:00:50.074Z,9.39
2023-08-06T04:02:31.486Z,9.35
2023-08-06T04:04:12.849Z,9.54
2023-08-06T04:05:54.183Z,9.70
2023-08-06T04:07:35.549Z,9.74
2023-08-06T04:09:16.924Z,9.74
2023-08-06T04:10:58.324Z,9.47
2023-08-06T04:12:59.661Z,9.36
2023-08-06T04:15:00.980Z,9.27
2023-08-06T04:16:42.327Z,9.26
2023-08-06T04:18:31.864Z,9.36
2023-08-06T04:20:13.216Z,9.63
2023-08-06T04:21:54.972Z,9.71
2023-08-06T04:23:36.516Z,9.93
2023-08-06T04:25:17.901Z,9.92
2023-08-06T04:26:59.257Z,9.90
2023-08-06T04:28:40.677Z,10.07
2023-08-06T04:30:22.042Z,10.06
2023-08-06T04:32:03.410Z,10.00
2023-08-06T04:33:45.004Z,10.18
2023-08-06T04:35:26.446Z,10.46
2023-08-06T04:37:07.821Z,10.47
2023-08-06T04:38:49.147Z,10.49
2023-08-06T04:40:30.524Z,10.51
2023-08-06T04:42:11.852Z,10.51
2023-08-06T04:43:53.206Z,10.53
2023-08-06T04:45:34.594Z,10.58
2023-08-06T04:47:16.157Z,10.54
2023-08-06T04:48:57.561Z,10.58
2023-08-06T04:50:38.906Z,10.64
2023-08-06T04:52:20.254Z,10.51
2023-08-06T04:54:01.590Z,10.60
2023-08-06T04:55:42.933Z,10.50
2023-08-06T04:57:24.289Z,10.58
2023-08-06T04:59:05.614Z,10.59
2023-08-06T05:00:46.988Z,10.61
2023-08-06T05:02:28.375Z,10.51
2023-08-06T05:04:09.802Z,9.99
2023-08-06T05:05:51.246Z,9.94
2023-08-06T05:07:32.594Z,9.83
2023-08-06T05:09:13.940Z,9.82
2023-08-06T05:10:55.288Z,9.91
2023-08-06T05:12:36.618Z,9.97
2023-08-06T05:14:17.987Z,10.01
2023-08-06T05:15:59.404Z,10.18
2023-08-06T05:17:40.786Z,10.30
2023-08-06T05:19:22.193Z,10.05
2023-08-06T05:21:03.532Z,10.16
2023-08-06T05:22:44.940Z,10.27
2023-08-06T05:24:26.286Z,10.10
2023-08-06T05:26:07.662Z,9.49
2023-08-06T05:27:49.028Z,9.67
2023-08-06T05:29:30.400Z,9.89
2023-08-06T05:31:11.730Z,10.04
2023-08-06T05:32:53.114Z,10.35
2023-08-06T05:34:34.501Z,10.24
2023-08-06T05:36:15.841Z,10.05
2023-08-06T05:37:57.192Z,9.85
2023-08-06T05:39:38.566Z,9.89
2023-08-06T05:41:19.901Z,9.98
2023-08-06T05:43:01.257Z,10.18
2023-08-06T05:44:42.604Z,10.41
2023-08-06T05:46:23.962Z,10.65
2023-08-06T05:48:05.393Z,10.55
2023-08-06T05:49:46.793Z,10.66
2023-08-06T05:51:28.163Z,10.61
2023-08-06T05:53:09.525Z,10.70
2023-08-06T05:54:50.858Z,10.36
2023-08-06T05:56:32.197Z,10.29
2023-08-06T05:58:13.546Z,10.39
2023-08-06T05:59:54.892Z,10.07
2023-08-06T06:01:36.254Z,10.00
2023-08-06T06:03:17.811Z,9.97
2023-08-06T06:04:59.205Z,9.98
2023-08-06T06:06:40.568Z,9.98
2023-08-06T06:08:21.916Z,10.08
2023-08-06T06:10:03.272Z,10.17
2023-08-06T06:11:44.640Z,10.47
2023-08-06T06:13:26.016Z,10.70
2023-08-06T06:15:07.356Z,10.78
2023-08-06T06:16:48.695Z,11.02
2023-08-06T06:18:30.074Z,11.30
2023-08-06T06:20:11.480Z,11.26
2023-08-06T06:21:53.040Z,11.40
2023-08-06T06:23:34.567Z,11.53
2023-08-06T06:25:15.922Z,11.50
2023-08-06T06:26:57.268Z,11.45
2023-08-06T06:28:38.621Z,11.66
2023-08-06T06:30:19.987Z,11.73
2023-08-06T06:32:01.339Z,11.68
2023-08-06T06:33:42.780Z,11.76
2023-08-06T06:35:24.147Z,11.79
2023-08-06T06:37:05.515Z,11.81
2023-08-06T06:38:46.843Z,11.78
2023-08-06T06:40:28.214Z,11.63
2023-08-06T06:42:09.636Z,11.29
2023-08-06T06:43:50.979Z,11.26
2023-08-06T06:45:32.352Z,11.18
2023-08-06T06:47:13.767Z,11.11
2023-08-06T06:48:55.199Z,11.24
2023-08-06T06:50:36.597Z,11.24
2023-08-06T06:52:17.960Z,11.47
2023-08-06T06:53:59.329Z,11.32
2023-08-06T06:55:40.685Z,11.47
2023-08-06T06:57:22.035Z,11.58
2023-08-06T06:59:03.402Z,11.70
2023-08-06T07:00:44.829Z,11.60
2023-08-06T07:02:26.219Z,11.57
2023-08-06T07:04:07.615Z,11.50
2023-08-06T07:05:48.975Z,11.55
2023-08-06T07:07:30.314Z,11.66
2023-08-06T07:09:11.692Z,11.86
2023-08-06T07:10:53.050Z,11.65
2023-08-06T07:12:34.396Z,11.42
2023-08-06T07:14:15.781Z,11.50
2023-08-06T07:15:57.184Z,11.56
2023-08-06T07:17:38.553Z,11.47
2023-08-06T07:19:20.010Z,11.66
2023-08-06T07:21:01.375Z,11.65
2023-08-06T07:22:42.709Z,11.79
2023-08-06T07:24:24.057Z,12.12
2023-08-06T07:26:05.442Z,12.24
2023-08-06T07:27:46.789Z,12.08
2023-08-06T07:29:28.133Z,12.01
2023-08-06T07:31:09.634Z,11.63
2023-08-06T07:32:51.016Z,11.59
2023-08-06T07:34:32.385Z,11.70
2023-08-06T07:36:13.765Z,11.45
2023-08-06T07:37:55.150Z,11.43
2023-08-06T07:39:36.510Z,11.61
2023-08-06T07:41:17.860Z,11.90
2023-08-06T07:42:59.209Z,12.10
2023-08-06T07:44:40.602Z,11.93
2023-08-06T07:46:22.855Z,11.63
2023-08-06T07:48:04.263Z,11.41
2023-08-06T07:49:45.813Z,11.79
2023-08-06T07:51:27.204Z,11.95
2023-08-06T07:53:08.529Z,11.97
2023-08-06T07:54:49.900Z,12.31
2023-08-06T07:56:31.267Z,12.70
2023-08-06T07:58:12.609Z,12.93
2023-08-06T07:59:53.992Z,12.67
2023-08-06T08:01:35.352Z,12.70
2023-08-06T08:03:16.870Z,12.12
2023-08-06T08:04:58.383Z,11.73
2023-08-06T08:06:39.737Z,11.73
2023-08-06T08:08:21.082Z,11.40
2023-08-06T08:10:02.428Z,11.14
2023-08-06T08:11:43.789Z,10.78
2023-08-06T08:13:25.147Z,10.80
2023-08-06T08:15:06.499Z,10.88
2023-08-06T08:16:47.908Z,10.91
2023-08-06T08:18:29.255Z,10.86
2023-08-06T08:20:10.603Z,11.05
2023-08-06T08:21:52.200Z,10.97
2023-08-06T08:23:33.815Z,10.88
2023-08-06T08:25:15.168Z,10.75
2023-08-06T08:26:56.520Z,10.48
2023-08-06T08:28:37.924Z,10.41
2023-08-06T08:30:19.269Z,10.15
2023-08-06T08:32:00.604Z,10.23
2023-08-06T08:33:42.016Z,9.95
2023-08-06T08:35:23.382Z,10.45
2023-08-06T08:37:04.716Z,10.88
2023-08-06T08:38:46.073Z,10.92
2023-08-06T08:40:27.454Z,10.96
2023-08-06T08:42:08.799Z,10.69
2023-08-06T08:43:50.157Z,11.11
2023-08-06T08:45:31.522Z,10.97
2023-08-06T08:47:12.858Z,10.75
2023-08-06T08:48:54.221Z,10.82
2023-08-06T08:50:35.556Z,11.18
2023-08-06T08:52:16.908Z,11.70
2023-08-06T08:53:58.263Z,11.83
2023-08-06T08:55:39.613Z,11.96
2023-08-06T08:57:20.955Z,12.34
2023-08-06T08:59:02.340Z,12.29
2023-08-06T09:00:43.690Z,11.89
2023-08-06T09:02:25.037Z,12.28
2023-08-06T09:04:06.417Z,12.46
2023-08-06T09:05:47.812Z,12.44
2023-08-06T09:07:29.165Z,12.38
2023-08-06T09:09:10.502Z,12.54
2023-08-06T09:10:51.842Z,13.00
2023-08-06T09:12:33.197Z,13.76
2023-08-06T09:14:14.566Z,13.70
2023-08-06T09:15:56.004Z,13.57
2023-08-06T09:17:37.389Z,14.19
2023-08-06T09:19:18.789Z,14.31
2023-08-06T09:21:00.129Z,13.37
2023-08-06T09:22:41.505Z,13.69
2023-08-06T09:24:22.864Z,14.16
2023-08-06T09:26:04.250Z,14.51
2023-08-06T09:27:45.620Z,15.15
2023-08-06T09:29:26.987Z,15.16
2023-08-06T09:31:08.325Z,15.11
2023-08-06T09:32:49.852Z,15.17
2023-08-06T09:34:31.266Z,14.97
2023-08-06T09:36:12.598Z,15.35
2023-08-06T09:37:53.992Z,14.95
2023-08-06T09:39:35.327Z,14.79
2023-08-06T09:41:16.677Z,14.76
2023-08-06T09:42:58.027Z,15.32
2023-08-06T09:44:39.363Z,15.10
2023-08-06T09:46:20.758Z,15.00
2023-08-06T09:48:02.125Z,15.68
2023-08-06T09:49:43.528Z,15.55
2023-08-06T09:51:24.878Z,15.40
2023-08-06T09:53:06.271Z,15.04
2023-08-06T09:54:47.630Z,15.03
2023-08-06T09:56:28.992Z,15.23
2023-08-06T09:58:10.329Z,15.10
2023-08-06T09:59:51.933Z,15.43
2023-08-06T10:01:33.337Z,15.42
2023-08-06T10:03:14.820Z,14.86
2023-08-06T10:04:56.224Z,15.10
2023-08-06T10:06:38.463Z,15.39
2023-08-06T10:08:19.848Z,14.84
2023-08-06T10:10:01.199Z,14.54
2023-08-06T10:11:42.561Z,13.87
2023-08-06T10:13:23.901Z,14.46
2023-08-06T10:15:05.242Z,14.99
2023-08-06T10:16:46.589Z,15.45
2023-08-06T10:18:28.007Z,15.14
2023-08-06T10:20:09.396Z,15.02
2023-08-06T10:21:50.754Z,15.17
2023-08-06T10:23:32.088Z,15.61
2023-08-06T10:25:13.434Z,16.28
2023-08-06T10:26:54.780Z,15.98
2023-08-06T10:28:36.101Z,15.75
2023-08-06T10:30:17.470Z,15.91
2023-08-06T10:31:58.807Z,16.26
2023-08-06T10:33:40.149Z,16.57
2023-08-06T10:35:21.490Z,15.77
2023-08-06T10:37:02.864Z,15.26
2023-08-06T10:38:44.243Z,15.28
2023-08-06T10:40:25.605Z,14.77
2023-08-06T10:42:07.023Z,14.66
2023-08-06T10:43:48.415Z,14.57
2023-08-06T10:45:29.813Z,14.89
2023-08-06T10:47:11.166Z,15.20
2023-08-06T10:48:52.521Z,15.57
2023-08-06T10:50:33.949Z,15.82
2023-08-06T10:52:15.578Z,16.32
2023-08-06T10:53:56.964Z,16.84
2023-08-06T10:55:38.332Z,17.33
2023-08-06T10:57:19.673Z,17.25
2023-08-06T10:59:01.043Z,17.43
2023-08-06T11:00:42.434Z,17.15
2023-08-06T11:02:23.928Z,17.13
2023-08-06T11:04:05.437Z,17.70
2023-08-06T11:05:46.793Z,17.92
2023-08-06T11:07:28.132Z,17.23
2023-08-06T11:09:09.522Z,16.46
2023-08-06T11:11:01.840Z,16.04
2023-08-06T11:12:45.058Z,16.51
2023-08-06T11:14:26.415Z,16.69
2023-08-06T11:16:07.770Z,16.50
2023-08-06T11:17:49.163Z,17.00
2023-08-06T11:19:30.660Z,16.86
2023-08-06T11:21:12.094Z,16.42
2023-08-06T11:22:53.473Z,16.44
2023-08-06T11:24:34.813Z,16.00
2023-08-06T11:26:17.115Z,15.52
2023-08-06T11:27:58.524Z,15.60
2023-08-06T11:29:39.898Z,16.19
2023-08-06T11:31:21.306Z,16.96
2023-08-06T11:33:02.696Z,16.68
2023-08-06T11:34:44.072Z,16.68
2023-08-06T11:36:25.410Z,15.76
2023-08-06T11:38:06.788Z,15.72
2023-08-06T11:39:48.160Z,15.99
2023-08-06T11:41:29.512Z,16.16
2023-08-06T11:43:10.882Z,16.72
2023-08-06T11:44:52.234Z,16.94
2023-08-06T11:46:33.765Z,17.50
2023-08-06T11:48:15.208Z,17.15
2023-08-06T11:49:56.547Z,17.46
2023-08-06T11:51:37.941Z,17.67
2023-08-06T11:53:19.366Z,17.75
2023-08-06T11:55:00.738Z,18.18
2023-08-06T11:56:42.100Z,17.62
2023-08-06T11:58:23.441Z,17.14
2023-08-06T12:00:04.821Z,16.71
2023-08-06T12:01:46.203Z,16.81
2023-08-06T12:03:27.600Z,16.55
2023-08-06T12:05:08.981Z,16.61
2023-08-06T12:06:51.023Z,16.28
2023-08-06T12:08:33.142Z,16.88
2023-08-06T12:10:14.583Z,16.13
2023-08-06T12:11:56.316Z,16.13
2023-08-06T12:13:37.874Z,16.41
2023-08-06T12:15:19.255Z,16.86
2023-08-06T12:17:00.612Z,17.52
2023-08-06T12:18:41.944Z,17.80
2023-08-06T12:20:23.337Z,17.90
2023-08-06T12:22:04.696Z,18.42
2023-08-06T12:23:46.034Z,17.64
2023-08-06T12:25:27.387Z,17.02
2023-08-06T12:27:08.746Z,16.71
2023-08-06T12:28:50.069Z,15.60
2023-08-06T12:30:31.451Z,15.39
2023-08-06T12:32:12.857Z,16.28
2023-08-06T12:33:54.188Z,16.67
2023-08-06T12:35:35.547Z,16.48
2023-08-06T12:37:16.924Z,15.76
2023-08-06T12:38:58.315Z,15.53
2023-08-06T12:40:41.698Z,14.66
2023-08-06T12:42:25.155Z,13.78
2023-08-06T12:44:06.523Z,13.62
2023-08-06T12:45:47.912Z,13.65
2023-08-06T12:47:29.304Z,13.89
2023-08-06T12:49:10.761Z,14.06
2023-08-06T12:50:52.118Z,13.93
2023-08-06T12:52:33.460Z,14.36
2023-08-06T12:54:14.842Z,15.11
2023-08-06T12:55:56.187Z,15.19
2023-08-06T12:57:51.909Z,15.02
2023-08-06T12:59:38.612Z,14.89
2023-08-06T13:01:20.001Z,14.75
2023-08-06T13:03:01.498Z,14.82
2023-08-06T13:04:42.968Z,14.39
2023-08-06T13:06:24.314Z,14.26
2023-08-06T13:08:05.678Z,14.90
2023-08-06T13:09:47.024Z,15.28
2023-08-06T13:11:28.416Z,14.87
2023-08-06T13:13:09.752Z,13.92
2023-08-06T13:14:51.115Z,13.55
2023-08-06T13:16:33.029Z,13.52
2023-08-06T13:18:14.618Z,12.90
2023-08-06T13:19:55.998Z,12.65
2023-08-06T13:21:37.359Z,13.17
2023-08-06T13:23:18.686Z,13.65
2023-08-06T13:25:00.069Z,14.08
2023-08-06T13:26:41.435Z,14.44
2023-08-06T13:28:22.778Z,14.69
2023-08-06T13:30:04.245Z,14.69
2023-08-06T13:31:45.654Z,14.44
2023-08-06T13:33:27.017Z,14.39
2023-08-06T13:35:08.374Z,14.46
2023-08-06T13:36:49.729Z,14.10
2023-08-06T13:38:31.067Z,13.66
2023-08-06T13:40:12.464Z,13.47
2023-08-06T13:41:53.872Z,13.11
2023-08-06T13:43:35.233Z,13.03
2023-08-06T13:45:16.644Z,12.80
2023-08-06T13:46:58.197Z,13.07
2023-08-06T13:48:39.625Z,13.30
2023-08-06T13:50:20.996Z,13.38
2023-08-06T13:52:19.588Z,13.69
2023-08-06T13:54:03.281Z,13.59
2023-08-06T13:55:44.658Z,13.78
2023-08-06T13:57:26.052Z,13.67
2023-08-06T13:59:07.477Z,13.23
2023-08-06T14:00:48.969Z,13.60
2023-08-06T14:02:30.466Z,13.47
2023-08-06T14:04:11.878Z,13.37
2023-08-06T14:05:53.279Z,13.30
2023-08-06T14:07:34.651Z,13.72
2023-08-06T14:09:15.996Z,13.92
2023-08-06T14:10:57.356Z,14.20
2023-08-06T14:12:38.712Z,14.05
2023-08-06T14:14:20.093Z,13.96
2023-08-06T14:16:01.539Z,13.94
2023-08-06T14:17:42.956Z,14.11
2023-08-06T14:19:24.351Z,14.39
2023-08-06T14:21:05.731Z,14.19
2023-08-06T14:22:47.074Z,14.24
2023-08-06T14:24:28.452Z,13.51
2023-08-06T14:26:09.795Z,13.51
2023-08-06T14:27:51.155Z,13.29
2023-08-06T14:29:32.502Z,13.35
2023-08-06T14:31:13.907Z,13.39
2023-08-06T14:32:55.264Z,13.57
2023-08-06T14:34:36.716Z,13.79
2023-08-06T14:36:19.264Z,13.74
2023-08-06T14:38:02.214Z,13.88
2023-08-06T14:39:44.887Z,13.89
2023-08-06T14:41:26.255Z,13.78
2023-08-06T14:43:07.614Z,13.87
2023-08-06T14:44:48.951Z,13.88
2023-08-06T14:46:30.438Z,13.72
2023-08-06T14:48:11.874Z,13.78
2023-08-06T14:49:53.245Z,13.86
2023-08-06T14:51:35.690Z,13.85
2023-08-06T14:53:17.192Z,13.66
2023-08-06T14:54:58.547Z,12.90
2023-08-06T14:56:39.925Z,12.48
2023-08-06T14:58:21.277Z,12.25
2023-08-06T15:00:02.664Z,11.77
2023-08-06T15:01:44.331Z,11.81
2023-08-06T15:03:25.659Z,12.03
2023-08-06T15:05:07.070Z,12.06
2023-08-06T15:06:48.460Z,12.00
2023-08-06T15:08:29.803Z,12.22
2023-08-06T15:11:55.430Z,12.44
2023-08-06T15:13:36.859Z,12.30
2023-08-06T15:15:18.213Z,12.51
2023-08-06T15:16:59.579Z,12.44
2023-08-06T15:18:41.025Z,12.61
2023-08-06T15:20:22.539Z,12.57
2023-08-06T15:22:03.919Z,12.61
2023-08-06T15:23:45.294Z,12.77
2023-08-06T15:25:27.406Z,12.94
2023-08-06T15:27:09.071Z,13.03
2023-08-06T15:28:50.586Z,12.88
2023-08-06T15:30:32.100Z,12.77
2023-08-06T15:32:13.476Z,12.80
2023-08-06T15:33:56.537Z,12.83
2023-08-06T15:35:39.788Z,12.74
2023-08-06T15:37:21.200Z,12.63
2023-08-06T15:39:02.553Z,12.80
2023-08-06T15:40:43.966Z,12.74
2023-08-06T15:42:25.394Z,12.72
2023-08-06T15:44:07.437Z,12.54
2023-08-06T15:45:49.100Z,12.07
2023-08-06T15:47:30.783Z,12.18
2023-08-06T15:49:12.368Z,12.40
2023-08-06T15:50:53.844Z,12.56
2023-08-06T15:52:35.553Z,12.56
2023-08-06T15:54:17.068Z,12.68
2023-08-06T15:55:58.725Z,12.92
2023-08-06T15:57:40.555Z,12.85
2023-08-06T15:59:22.096Z,12.83
2023-08-06T16:01:03.450Z,12.69
2023-08-06T16:02:45.167Z,12.64
2023-08-06T16:04:26.804Z,12.66
2023-08-06T16:06:09.001Z,11.69
2023-08-06T16:07:51.917Z,11.70
2023-08-06T16:09:33.284Z,11.75
2023-08-06T16:11:14.615Z,11.55
2023-08-06T16:12:56.038Z,11.53
2023-08-06T16:14:37.370Z,11.51
2023-08-06T16:16:18.887Z,11.16
2023-08-06T16:18:00.308Z,11.15
2023-08-06T16:19:41.683Z,11.20
2023-08-06T16:21:23.057Z,11.54
2023-08-06T16:23:04.400Z,11.89
2023-08-06T16:24:45.748Z,11.93
2023-08-06T16:26:27.095Z,11.73
2023-08-06T16:28:08.444Z,11.45
2023-08-06T16:29:49.766Z,11.44
2023-08-06T16:31:31.253Z,11.47
2023-08-06T16:33:12.684Z,11.49
2023-08-06T16:34:54.007Z,11.51
2023-08-06T16:36:35.352Z,11.54
2023-08-06T16:38:16.714Z,11.13
2023-08-06T16:39:58.063Z,11.22
2023-08-06T16:41:39.447Z,11.15
2023-08-06T16:43:21.150Z,11.12
2023-08-06T16:45:03.336Z,11.40
2023-08-06T16:46:44.680Z,11.05
2023-08-06T16:48:26.019Z,11.02
2023-08-06T16:50:09.166Z,10.62
2023-08-06T16:51:52.079Z,10.85
2023-08-06T16:53:33.812Z,11.08
2023-08-06T16:55:15.177Z,10.90
2023-08-06T16:56:56.769Z,10.34
2023-08-06T16:58:38.245Z,10.37
2023-08-06T17:00:19.599Z,10.35
2023-08-06T17:02:01.113Z,10.41
2023-08-06T17:04:02.435Z,10.41
2023-08-06T17:05:43.845Z,10.54
2023-08-06T17:07:25.203Z,10.67
2023-08-06T17:09:06.540Z,10.85
2023-08-06T17:10:47.917Z,11.03
2023-08-06T17:12:29.311Z,11.18
2023-08-06T17:14:10.662Z,11.35
2023-08-06T17:15:52.072Z,11.01
2023-08-06T17:17:33.450Z,10.47
2023-08-06T17:19:17.256Z,10.69
2023-08-06T17:20:59.819Z,10.81
2023-08-06T17:22:41.222Z,10.06
2023-08-06T17:24:22.572Z,10.16
2023-08-06T17:26:03.971Z,10.20
2023-08-06T17:27:45.321Z,9.80
2023-08-06T17:29:26.665Z,9.84
2023-08-06T17:31:08.126Z,9.50
2023-08-06T17:32:49.661Z,9.58
2023-08-06T17:34:31.032Z,9.68
2023-08-06T17:36:12.370Z,9.78
2023-08-06T17:37:53.736Z,9.81
2023-08-06T17:39:35.092Z,9.82
2023-08-06T17:41:16.462Z,9.98
2023-08-06T17:42:57.815Z,10.06
2023-08-06T17:44:39.179Z,10.21
2023-08-06T17:46:20.542Z,10.40
2023-08-06T17:48:01.956Z,10.40
2023-08-06T17:49:43.342Z,10.49
2023-08-06T17:51:24.791Z,10.66
2023-08-06T17:53:06.199Z,10.58
2023-08-06T17:54:47.556Z,10.67
2023-08-06T17:56:28.926Z,10.73
2023-08-06T17:58:10.332Z,10.61
2023-08-06T17:59:51.692Z,10.44
2023-08-06T18:01:33.138Z,10.72
2023-08-06T18:03:14.793Z,10.67
2023-08-06T18:04:56.232Z,10.81
2023-08-06T18:06:37.600Z,10.47
2023-08-06T18:08:18.968Z,10.33
2023-08-06T18:10:00.361Z,10.30
2023-08-06T18:11:41.850Z,10.43
2023-08-06T18:13:23.217Z,10.46
2023-08-06T18:15:04.573Z,10.30
2023-08-06T18:16:45.968Z,10.39
2023-08-06T18:18:27.318Z,10.34
2023-08-06T18:20:08.687Z,9.89
2023-08-06T18:21:50.084Z,9.74
2023-08-06T18:23:31.505Z,9.20
2023-08-06T18:25:12.955Z,9.32
2023-08-06T18:26:54.415Z,9.33
2023-08-06T18:28:35.883Z,9.50
2023-08-06T18:30:17.223Z,9.44
2023-08-06T18:31:58.596Z,8.88
2023-08-06T18:33:39.973Z,8.90
2023-08-06T18:35:21.410Z,9.16
2023-08-06T18:37:02.812Z,9.09
2023-08-06T18:38:44.212Z,8.98
2023-08-06T18:40:25.554Z,8.43
2023-08-06T18:43:48.516Z,8.67
2023-08-06T18:45:29.889Z,8.36
2023-08-06T18:47:11.247Z,7.88
2023-08-06T18:48:52.615Z,8.09
2023-08-06T18:50:33.988Z,8.06
2023-08-06T18:52:15.358Z,8.10
2023-08-06T18:53:56.735Z,8.33
2023-08-06T18:55:38.065Z,8.37
2023-08-06T18:57:19.394Z,8.57
2023-08-06T18:59:00.747Z,8.51
2023-08-06T19:00:42.072Z,8.70
2023-08-06T19:02:23.468Z,8.79
2023-08-06T19:04:04.937Z,8.51
2023-08-06T19:05:46.538Z,8.46
2023-08-06T19:07:27.989Z,8.49
2023-08-06T19:09:09.341Z,8.64
2023-08-06T19:10:50.688Z,8.65
2023-08-06T19:12:32.038Z,8.60
2023-08-06T19:14:13.384Z,8.45
2023-08-06T19:15:54.760Z,8.79
2023-08-06T19:17:36.295Z,8.79
2023-08-06T19:19:17.697Z,9.04
2023-08-06T19:20:59.081Z,9.19
2023-08-06T19:22:40.472Z,9.23
2023-08-06T19:24:21.862Z,9.28
2023-08-06T19:26:03.269Z,9.37
2023-08-06T19:27:44.653Z,9.07
2023-08-06T19:29:26.003Z,9.10
2023-08-06T19:31:07.335Z,9.05
2023-08-06T19:32:48.779Z,8.80
2023-08-06T19:34:30.249Z,8.91
2023-08-06T19:36:11.577Z,8.79
2023-08-06T19:37:52.987Z,8.49
2023-08-06T19:39:34.358Z,8.37
2023-08-06T19:41:15.702Z,8.50
2023-08-06T19:42:57.062Z,8.70
2023-08-06T19:44:38.410Z,8.91
2023-08-06T19:46:19.945Z,8.51
2023-08-06T19:48:01.493Z,8.57
2023-08-06T19:49:42.855Z,8.46
2023-08-06T19:51:24.208Z,8.28
2023-08-06T19:53:05.561Z,8.42
2023-08-06T19:54:46.937Z,8.33
2023-08-06T19:56:28.303Z,8.51
2023-08-06T19:58:09.647Z,8.56
2023-08-06T19:59:51.017Z,8.36
2023-08-06T20:01:32.469Z,8.17
2023-08-06T20:03:13.917Z,8.53
2023-08-06T20:05:04.694Z,8.52
2023-08-06T20:06:47.170Z,8.23
2023-08-06T20:08:29.984Z,8.28
2023-08-06T20:10:11.322Z,8.39
2023-08-06T20:11:52.921Z,8.47
2023-08-06T20:13:34.530Z,8.10
2023-08-06T20:15:15.875Z,7.82
2023-08-06T20:16:57.276Z,7.33
2023-08-06T20:18:38.621Z,6.95
2023-08-06T20:20:19.981Z,7.18
2023-08-06T20:22:01.324Z,7.45
2023-08-06T20:23:42.667Z,7.17
2023-08-06T20:25:24.044Z,7.34
2023-08-06T20:27:05.505Z,7.51
2023-08-06T20:28:46.923Z,7.40
2023-08-06T20:30:28.268Z,7.38
2023-08-06T20:32:09.646Z,7.41
2023-08-06T20:33:50.994Z,7.27
2023-08-06T20:35:32.326Z,7.31
2023-08-06T20:37:13.927Z,7.53
2023-08-06T20:38:57.385Z,7.56
2023-08-06T20:40:39.003Z,7.73
2023-08-06T20:42:20.371Z,8.14
2023-08-06T20:44:01.730Z,8.18
2023-08-06T20:45:43.070Z,8.32
2023-08-06T20:47:24.482Z,8.49
2023-08-06T20:49:05.871Z,8.60
2023-08-06T20:50:47.206Z,8.59
2023-08-06T20:52:28.533Z,8.28
2023-08-06T20:54:09.877Z,8.24
2023-08-06T20:55:51.231Z,8.40
2023-08-06T20:57:32.560Z,8.38
2023-08-06T20:59:13.909Z,7.95
2023-08-06T21:00:55.280Z,7.90
2023-08-06T21:02:36.705Z,8.06
2023-08-06T21:04:18.089Z,8.16
2023-08-06T21:05:59.466Z,8.15
2023-08-06T21:07:40.806Z,8.15
2023-08-06T21:09:22.142Z,8.17
2023-08-06T21:11:03.528Z,8.29
2023-08-06T21:12:44.882Z,8.24
2023-08-06T21:14:26.220Z,8.53
2023-08-06T21:16:07.619Z,8.48
2023-08-06T21:17:49.015Z,8.57
2023-08-06T21:19:30.555Z,8.49
2023-08-06T21:21:11.935Z,8.67
2023-08-06T21:22:53.298Z,8.51
2023-08-06T21:24:34.776Z,8.47
2023-08-06T21:26:16.116Z,8.51
2023-08-06T21:27:57.484Z,8.69
2023-08-06T21:29:38.815Z,8.56
2023-08-06T21:31:20.230Z,8.66
2023-08-06T21:33:01.659Z,8.87
2023-08-06T21:34:43.052Z,9.03
2023-08-06T21:36:24.403Z,8.92
2023-08-06T21:38:05.741Z,8.81
2023-08-06T21:39:47.072Z,8.99
2023-08-06T21:41:28.443Z,9.04
2023-08-06T21:43:09.833Z,8.70
2023-08-06T21:44:51.161Z,8.82
2023-08-06T21:46:33.135Z,8.74
2023-08-06T21:48:15.125Z,8.69
2023-08-06T21:49:56.463Z,8.79
2023-08-06T21:51:37.827Z,8.74
2023-08-06T21:53:19.195Z,8.53
2023-08-06T21:55:00.553Z,8.34
2023-08-06T21:56:41.971Z,8.10
2023-08-06T21:58:23.323Z,7.91
2023-08-06T22:00:04.671Z,7.80
2023-08-06T22:01:46.044Z,7.56
2023-08-06T22:03:27.370Z,7.53
2023-08-06T22:05:08.731Z,7.62